Ashford, Connecticut
Current Conditions -  °F | °C
As of 5:52 PM on Thursday 20 Nov 2014 (Local Time) from KIJD Reporting Station
Few Clouds Few Clouds  
Wind Chill:   Ceiling: Unl
Heat Index:   Visibility: 10mi
Dew Point: -8°   Wind: 5mph
Humidity: 41%   Direction: 240°WSW
Pressure: 29.84"   Gusts: NA
Location:  41.87°N, 72.12°W
Report Text: KIJD 202252Z AUTO 24004KT 10SM FEW065 04/M08 A2984 RMK AO2 SLP105 T00441078
Loading
Personal Weather Stations






























Interactive Weather Map New forecast layout! Learn more

10-Day Weather Forecast

Advertisements
Track Severe Weather on mobile